Terminal Aerodrome Forecast
Issued by NWS

Home | Current Version | Previous Version | Graphics & Text | Print | Product List | Glossary On
Versions: 1 2 3 4 5 6 7 8 9 10 11 12 13 14 15 16 17 18 19
000
FTUS43 KFGF 170500
TAFBJI
TAF
KBJI 170520Z 1706/1806 VRB06KT P6SM SCT250
     FM171500 36007KT P6SM SCT080 SCT250
     FM180000 06007KT P6SM SCT250=

USA.gov is the U.S. government's official web portal to all federal, state and local government web resources and services.